createdAt,value
2023-03-11T00:00:37.945Z,3.30
2023-03-11T00:03:06.726Z,3.42
2023-03-11T00:05:40.266Z,3.30
2023-03-11T00:08:12.315Z,3.95
2023-03-11T00:10:42.401Z,2.85
2023-03-11T00:13:12.462Z,3.17
2023-03-11T00:15:41.066Z,2.67
2023-03-11T00:18:08.809Z,2.95
2023-03-11T00:20:38.674Z,3.00
2023-03-11T00:23:07.880Z,2.78
2023-03-11T00:25:37.064Z,2.78
2023-03-11T00:28:07.283Z,3.80
2023-03-11T00:30:34.908Z,3.42
2023-03-11T00:33:02.494Z,2.97
2023-03-11T00:35:32.007Z,3.15
2023-03-11T00:38:03.455Z,3.30
2023-03-11T00:40:33.131Z,3.35
2023-03-11T00:43:00.608Z,3.38
2023-03-11T00:45:28.757Z,3.10
2023-03-11T00:47:56.812Z,3.88
2023-03-11T00:50:28.131Z,3.25
2023-03-11T00:52:55.862Z,3.83
2023-03-11T00:55:25.955Z,4.05
2023-03-11T00:57:55.663Z,3.55
2023-03-11T01:00:24.522Z,4.03
2023-03-11T01:02:54.165Z,3.85
2023-03-11T01:05:25.411Z,4.72
2023-03-11T01:07:52.960Z,3.92
2023-03-11T01:10:20.803Z,3.95
2023-03-11T01:12:48.531Z,4.70
2023-03-11T01:15:34.741Z,4.72
2023-03-11T01:18:03.272Z,3.75
2023-03-11T01:20:31.817Z,4.18
2023-03-11T01:22:59.211Z,3.50
2023-03-11T01:25:26.925Z,3.95
2023-03-11T01:27:54.602Z,4.10
2023-03-11T01:30:24.187Z,3.65
2023-03-11T01:32:53.671Z,3.38
2023-03-11T01:35:24.600Z,3.53
2023-03-11T01:37:53.012Z,3.95
2023-03-11T01:40:36.007Z,3.92
2023-03-11T01:43:05.650Z,3.10
2023-03-11T01:46:02.492Z,3.50
2023-03-11T01:48:30.018Z,4.47
2023-03-11T01:50:57.906Z,4.07
2023-03-11T01:53:25.811Z,5.10
2023-03-11T01:55:53.648Z,4.38
2023-03-11T01:58:25.355Z,4.72
2023-03-11T02:00:53.874Z,4.47
2023-03-11T02:03:41.907Z,5.20
2023-03-11T02:06:21.859Z,6.32
2023-03-11T02:08:51.561Z,5.25
2023-03-11T02:11:24.936Z,6.03
2023-03-11T02:13:56.454Z,4.97
2023-03-11T02:18:51.212Z,4.28
2023-03-11T02:21:26.573Z,8.32
2023-03-11T02:24:10.412Z,4.57
2023-03-11T02:26:41.661Z,4.82
2023-03-11T02:29:11.334Z,4.15
2023-03-11T02:31:43.134Z,4.53
2023-03-11T02:34:20.189Z,4.13
2023-03-11T02:36:47.783Z,4.32
2023-03-11T02:39:15.071Z,4.65
2023-03-11T02:41:46.609Z,4.03
2023-03-11T02:44:16.480Z,4.18
2023-03-11T02:46:44.551Z,4.20
2023-03-11T02:49:12.950Z,4.80
2023-03-11T02:51:40.503Z,4.63
2023-03-11T02:54:07.903Z,3.95
2023-03-11T02:56:35.542Z,3.97
2023-03-11T02:59:03.697Z,4.32
2023-03-11T03:01:31.453Z,3.55
2023-03-11T03:03:58.986Z,3.80
2023-03-11T03:06:28.651Z,4.18
2023-03-11T03:08:56.631Z,4.53
2023-03-11T03:11:24.203Z,4.28
2023-03-11T03:13:51.872Z,4.47
2023-03-11T03:16:19.539Z,4.20
2023-03-11T03:18:47.058Z,4.88
2023-03-11T03:21:14.546Z,5.45
2023-03-11T03:23:42.048Z,4.90
2023-03-11T03:26:13.943Z,5.28
2023-03-11T03:28:41.262Z,5.20
2023-03-11T03:31:09.956Z,5.57
2023-03-11T03:33:38.004Z,5.40
2023-03-11T03:36:10.967Z,5.07
2023-03-11T03:38:38.536Z,4.63
2023-03-11T03:41:06.242Z,4.70
2023-03-11T03:43:33.822Z,5.13
2023-03-11T03:46:04.276Z,5.00
2023-03-11T03:48:32.090Z,5.17
2023-03-11T03:51:08.013Z,5.45
2023-03-11T03:53:36.419Z,5.18
2023-03-11T03:56:10.063Z,5.07
2023-03-11T03:58:38.217Z,4.63
2023-03-11T04:01:06.709Z,5.22
2023-03-11T04:03:35.933Z,5.20
2023-03-11T04:06:15.803Z,4.80
2023-03-11T04:08:43.620Z,5.72
2023-03-11T04:11:11.096Z,5.93
2023-03-11T04:13:38.711Z,5.50
2023-03-11T04:16:07.658Z,5.22
2023-03-11T04:18:35.411Z,4.97
2023-03-11T04:21:06.814Z,5.00
2023-03-11T04:23:34.811Z,5.05
2023-03-11T04:26:02.208Z,4.95
2023-03-11T04:28:29.486Z,5.85
2023-03-11T04:30:57.404Z,4.78
2023-03-11T04:33:25.166Z,4.88
2023-03-11T04:35:52.626Z,5.30
2023-03-11T04:38:20.197Z,4.82
2023-03-11T04:40:47.600Z,5.63
2023-03-11T04:43:14.953Z,6.30
2023-03-11T04:45:42.692Z,6.03
2023-03-11T04:48:10.260Z,5.13
2023-03-11T04:50:37.797Z,5.32
2023-03-11T04:53:05.249Z,5.70
2023-03-11T04:55:33.390Z,5.70
2023-03-11T04:58:00.895Z,6.15
2023-03-11T05:00:28.542Z,6.00
2023-03-11T05:02:56.063Z,6.45
2023-03-11T05:05:24.003Z,5.85
2023-03-11T05:07:51.554Z,5.30
2023-03-11T05:10:24.958Z,5.63
2023-03-11T05:12:52.958Z,6.35
2023-03-11T05:15:20.594Z,5.00
2023-03-11T05:17:48.193Z,5.65
2023-03-11T05:20:16.620Z,5.28
2023-03-11T05:22:44.057Z,5.65
2023-03-11T05:25:11.697Z,5.80
2023-03-11T05:27:39.199Z,5.68
2023-03-11T05:30:07.650Z,5.78
2023-03-11T05:32:35.372Z,6.20
2023-03-11T05:35:03.049Z,5.85
2023-03-11T05:37:32.395Z,6.35
2023-03-11T05:39:59.755Z,5.90
2023-03-11T05:42:27.334Z,5.65
2023-03-11T05:44:54.802Z,6.00
2023-03-11T05:47:22.514Z,6.32
2023-03-11T05:49:50.154Z,5.95
2023-03-11T05:52:18.007Z,6.20
2023-03-11T05:54:45.549Z,6.60
2023-03-11T05:57:12.977Z,5.90
2023-03-11T05:59:40.239Z,5.35
2023-03-11T06:02:07.854Z,5.97
2023-03-11T06:04:35.572Z,5.80
2023-03-11T06:07:03.819Z,5.78
2023-03-11T06:09:31.397Z,5.97
2023-03-11T06:11:58.840Z,5.93
2023-03-11T06:14:28.891Z,6.30
2023-03-11T06:16:56.447Z,5.57
2023-03-11T06:19:24.042Z,7.05
2023-03-11T06:21:52.135Z,5.65
2023-03-11T06:24:19.752Z,6.03
2023-03-11T06:26:50.744Z,5.30
2023-03-11T06:29:18.551Z,5.13
2023-03-11T06:31:45.994Z,5.78
2023-03-11T06:34:13.335Z,6.47
2023-03-11T06:36:41.041Z,6.68
2023-03-11T06:39:09.377Z,6.15
2023-03-11T06:41:36.642Z,6.43
2023-03-11T06:44:05.013Z,6.82
2023-03-11T06:46:32.585Z,5.97
2023-03-11T06:49:00.155Z,6.32
2023-03-11T06:51:28.058Z,6.60
2023-03-11T06:53:55.741Z,5.82
2023-03-11T06:56:23.698Z,7.75
2023-03-11T06:58:51.140Z,6.28
2023-03-11T07:01:21.861Z,6.88
2023-03-11T07:03:50.419Z,6.00
2023-03-11T07:06:21.942Z,6.70
2023-03-11T07:08:51.509Z,6.43
2023-03-11T07:11:24.699Z,6.68
2023-03-11T07:13:53.244Z,7.22
2023-03-11T07:16:24.170Z,6.53
2023-03-11T07:18:53.091Z,6.05
2023-03-11T07:21:23.040Z,6.95
2023-03-11T07:23:55.335Z,5.72
2023-03-11T07:26:23.747Z,6.35
2023-03-11T07:28:52.870Z,6.45
2023-03-11T07:31:26.123Z,5.55
2023-03-11T07:33:54.389Z,6.75
2023-03-11T07:36:24.394Z,6.03
2023-03-11T07:39:04.765Z,6.00
2023-03-11T07:41:34.243Z,6.20
2023-03-11T07:44:04.729Z,5.93
2023-03-11T07:46:33.292Z,6.33
2023-03-11T07:49:02.542Z,7.93
2023-03-11T07:51:32.800Z,6.35
2023-03-11T07:54:01.919Z,6.60
2023-03-11T07:56:32.672Z,6.97
2023-03-11T07:59:02.004Z,5.70
2023-03-11T08:01:36.439Z,6.18
2023-03-11T08:04:06.450Z,6.10
2023-03-11T08:06:35.541Z,6.43
2023-03-11T08:09:06.692Z,6.30
2023-03-11T08:11:43.647Z,5.38
2023-03-11T08:14:11.578Z,5.63
2023-03-11T08:16:44.305Z,6.05
2023-03-11T08:19:13.047Z,6.88
2023-03-11T08:21:40.784Z,5.95
2023-03-11T08:24:10.927Z,6.38
2023-03-11T08:26:38.739Z,5.97
2023-03-11T08:29:06.990Z,5.95
2023-03-11T08:31:35.370Z,6.82
2023-03-11T08:34:09.458Z,5.60
2023-03-11T08:36:37.352Z,5.57
2023-03-11T08:39:05.193Z,5.15
2023-03-11T08:41:33.150Z,4.07
2023-03-11T08:44:01.300Z,4.57
2023-03-11T08:46:34.879Z,4.72
2023-03-11T08:49:03.287Z,4.82
2023-03-11T08:51:33.297Z,4.43
2023-03-11T08:54:04.271Z,4.22
2023-03-11T08:56:31.838Z,3.15
2023-03-11T08:59:03.083Z,2.10
2023-03-11T09:01:30.733Z,1.63
2023-03-11T09:03:58.523Z,2.42
2023-03-11T09:06:26.740Z,2.33
2023-03-11T09:08:54.038Z,1.98
2023-03-11T09:11:22.663Z,3.10
2023-03-11T09:13:50.645Z,1.88
2023-03-11T09:16:21.685Z,1.92
2023-03-11T09:18:49.677Z,1.75
2023-03-11T09:21:20.170Z,1.33
2023-03-11T09:23:48.787Z,1.95
2023-03-11T09:26:16.456Z,1.80
2023-03-11T09:28:52.051Z,2.20
2023-03-11T09:31:19.865Z,2.10
2023-03-11T09:33:48.067Z,1.42
2023-03-11T09:36:18.024Z,1.83
2023-03-11T09:38:46.029Z,1.50
2023-03-11T09:41:24.040Z,2.45
2023-03-11T09:44:00.492Z,1.63
2023-03-11T09:46:40.785Z,1.63
2023-03-11T09:49:31.331Z,1.80
2023-03-11T09:52:10.346Z,1.60
2023-03-11T09:54:41.939Z,1.65
2023-03-11T09:57:23.999Z,1.58
2023-03-11T09:59:51.972Z,1.30
2023-03-11T10:02:26.651Z,1.10
2023-03-11T10:05:24.635Z,1.27
2023-03-11T10:08:00.582Z,2.42
2023-03-11T10:10:34.786Z,1.42
2023-03-11T10:13:15.087Z,1.50
2023-03-11T10:16:01.031Z,1.80
2023-03-11T10:18:50.544Z,1.25
2023-03-11T10:21:29.816Z,1.40
2023-03-11T10:24:14.476Z,1.15
2023-03-11T10:29:20.292Z,2.42
2023-03-11T10:31:57.630Z,1.65
2023-03-11T10:34:43.848Z,1.98
2023-03-11T10:37:47.982Z,1.70
2023-03-11T10:40:30.283Z,1.40
2023-03-11T10:45:31.584Z,1.58
2023-03-11T10:47:59.189Z,1.50
2023-03-11T10:50:27.045Z,1.30
2023-03-11T10:53:15.877Z,1.88
2023-03-11T10:55:54.685Z,1.63
2023-03-11T10:58:28.387Z,1.45
2023-03-11T11:01:12.606Z,1.48
2023-03-11T11:03:50.339Z,1.40
2023-03-11T11:06:27.212Z,1.42
2023-03-11T11:09:17.943Z,1.50
2023-03-11T11:12:21.104Z,1.75
2023-03-11T11:14:52.760Z,1.77
2023-03-11T11:17:32.683Z,1.30
2023-03-11T11:20:12.965Z,1.40
2023-03-11T11:22:51.101Z,1.70
2023-03-11T11:25:37.987Z,1.45
2023-03-11T11:28:16.083Z,1.58
2023-03-11T11:31:01.649Z,1.42
2023-03-11T11:33:34.143Z,1.17
2023-03-11T11:36:04.382Z,1.90
2023-03-11T11:38:33.364Z,1.23
2023-03-11T11:41:03.824Z,1.48
2023-03-11T11:43:59.167Z,1.25
2023-03-11T11:46:38.646Z,1.30
2023-03-11T11:49:08.993Z,1.40
2023-03-11T11:52:06.032Z,1.35
2023-03-11T11:54:42.776Z,1.20
2023-03-11T11:57:19.709Z,1.40
2023-03-11T11:59:47.884Z,1.27
2023-03-11T12:02:37.484Z,1.30
2023-03-11T12:05:44.648Z,1.42
2023-03-11T12:08:41.726Z,1.27
2023-03-11T12:11:26.064Z,1.55
2023-03-11T12:14:03.180Z,1.60
2023-03-11T12:16:51.968Z,1.35
2023-03-11T12:19:42.078Z,1.25
2023-03-11T12:22:15.375Z,1.20
2023-03-11T12:25:17.625Z,2.33
2023-03-11T12:27:51.154Z,1.50
2023-03-11T12:30:45.220Z,1.77
2023-03-11T12:33:33.998Z,2.30
2023-03-11T12:36:03.371Z,1.98
2023-03-11T12:38:45.823Z,1.70
2023-03-11T12:41:15.932Z,1.55
2023-03-11T12:43:43.430Z,1.83
2023-03-11T12:46:13.688Z,1.13
2023-03-11T12:49:07.380Z,1.48
2023-03-11T12:51:35.021Z,1.70
2023-03-11T12:54:22.544Z,1.80
2023-03-11T12:57:06.276Z,1.48
2023-03-11T12:59:55.237Z,1.48
2023-03-11T13:02:44.548Z,1.65
2023-03-11T13:05:29.727Z,1.05
2023-03-11T13:08:14.582Z,1.20
2023-03-11T13:10:55.400Z,1.17
2023-03-11T13:13:32.503Z,1.55
2023-03-11T13:16:15.306Z,1.70
2023-03-11T13:18:48.393Z,2.30
2023-03-11T13:21:28.107Z,1.20
2023-03-11T13:24:25.865Z,1.45
2023-03-11T13:27:00.471Z,1.40
2023-03-11T13:29:40.887Z,1.65
2023-03-11T13:32:17.192Z,1.33
2023-03-11T13:35:22.338Z,1.73
2023-03-11T13:38:17.341Z,2.03
2023-03-11T13:40:46.550Z,1.50
2023-03-11T13:43:24.034Z,2.13
2023-03-11T13:46:14.539Z,2.10
2023-03-11T13:48:48.134Z,1.40
2023-03-11T13:51:25.085Z,1.30
2023-03-11T13:53:59.801Z,1.05
2023-03-11T13:56:31.439Z,1.60
2023-03-11T13:59:24.283Z,1.88
2023-03-11T14:01:53.382Z,1.40
2023-03-11T14:04:28.399Z,1.50
2023-03-11T14:06:56.281Z,1.20
2023-03-11T14:09:26.244Z,1.52
2023-03-11T14:11:54.944Z,1.70
2023-03-11T14:15:14.339Z,1.95
2023-03-11T14:17:41.968Z,1.30
2023-03-11T14:20:23.701Z,1.52
2023-03-11T14:22:56.130Z,1.02
2023-03-11T14:25:27.471Z,1.40
2023-03-11T14:30:30.371Z,2.05
2023-03-11T14:33:02.129Z,1.40
2023-03-11T14:35:31.166Z,1.40
2023-03-11T14:37:59.213Z,1.45
2023-03-11T14:40:32.671Z,1.45
2023-03-11T14:43:03.784Z,1.38
2023-03-11T14:48:23.013Z,1.02
2023-03-11T14:50:50.895Z,1.38
2023-03-11T14:53:21.483Z,1.08
2023-03-11T14:55:59.277Z,0.93
2023-03-11T14:58:37.218Z,1.40
2023-03-11T15:01:07.439Z,1.50
2023-03-11T15:03:39.604Z,1.40
2023-03-11T15:06:10.130Z,1.70
2023-03-11T15:08:51.561Z,0.93
2023-03-11T15:11:25.281Z,1.27
2023-03-11T15:13:53.590Z,1.10
2023-03-11T15:16:28.782Z,1.90
2023-03-11T15:18:56.661Z,2.45
2023-03-11T15:21:25.072Z,1.75
2023-03-11T15:24:02.623Z,1.90
2023-03-11T15:26:32.128Z,1.40
2023-03-11T15:29:13.273Z,1.50
2023-03-11T15:31:44.669Z,1.80
2023-03-11T15:34:18.347Z,1.65
2023-03-11T15:36:57.333Z,1.33
2023-03-11T15:39:30.990Z,1.55
2023-03-11T15:42:03.633Z,5.03
2023-03-11T15:44:41.320Z,1.55
2023-03-11T15:47:20.523Z,1.60
2023-03-11T15:49:48.684Z,2.22
2023-03-11T15:52:17.284Z,1.48
2023-03-11T15:54:54.740Z,1.20
2023-03-11T15:57:27.328Z,1.75
2023-03-11T15:59:57.313Z,1.50
2023-03-11T16:02:26.882Z,1.38
2023-03-11T16:04:55.015Z,1.20
2023-03-11T16:07:38.050Z,1.50
2023-03-11T16:10:08.213Z,1.40
2023-03-11T16:12:36.080Z,1.27
2023-03-11T16:15:05.081Z,1.20
2023-03-11T16:17:48.406Z,1.30
2023-03-11T16:20:17.474Z,1.50
2023-03-11T16:22:46.478Z,1.08
2023-03-11T16:25:21.784Z,1.48
2023-03-11T16:27:51.569Z,1.30
2023-03-11T16:30:20.384Z,1.15
2023-03-11T16:32:47.975Z,1.30
2023-03-11T16:35:15.573Z,1.13
2023-03-11T16:37:43.717Z,1.15
2023-03-11T16:40:17.974Z,1.38
2023-03-11T16:42:46.597Z,1.60
2023-03-11T16:45:16.226Z,1.58
2023-03-11T16:47:44.023Z,1.45
2023-03-11T16:50:12.337Z,1.40
2023-03-11T16:52:39.925Z,1.20
2023-03-11T16:55:08.110Z,1.40
2023-03-11T16:57:35.463Z,1.77
2023-03-11T17:00:05.484Z,1.38
2023-03-11T17:02:33.479Z,1.02
2023-03-11T17:05:01.019Z,1.20
2023-03-11T17:07:28.633Z,1.40
2023-03-11T17:09:57.221Z,1.38
2023-03-11T17:12:25.879Z,1.38
2023-03-11T17:14:54.065Z,1.45
2023-03-11T17:17:22.173Z,4.90
2023-03-11T17:19:49.771Z,1.42
2023-03-11T17:22:17.598Z,1.45
2023-03-11T17:24:45.061Z,1.17
2023-03-11T17:27:13.125Z,1.40
2023-03-11T17:29:40.473Z,1.67
2023-03-11T17:32:08.379Z,1.58
2023-03-11T17:34:35.926Z,2.22
2023-03-11T17:37:03.409Z,1.90
2023-03-11T17:39:30.772Z,2.83
2023-03-11T17:41:58.520Z,1.92
2023-03-11T17:44:28.894Z,2.47
2023-03-11T17:46:57.772Z,2.30
2023-03-11T17:49:25.170Z,1.95
2023-03-11T17:51:52.655Z,1.80
2023-03-11T17:54:20.108Z,1.30
2023-03-11T17:56:47.625Z,1.20
2023-03-11T17:59:16.504Z,1.25
2023-03-11T18:01:45.275Z,1.53
2023-03-11T18:04:12.971Z,1.55
2023-03-11T18:06:40.426Z,1.38
2023-03-11T18:09:07.665Z,2.03
2023-03-11T18:11:35.263Z,1.70
2023-03-11T18:14:02.920Z,1.52
2023-03-11T18:16:31.913Z,1.70
2023-03-11T18:18:59.412Z,1.80
2023-03-11T18:21:30.003Z,2.15
2023-03-11T18:24:00.227Z,1.60
2023-03-11T18:26:29.455Z,1.40
2023-03-11T18:28:59.290Z,1.27
2023-03-11T18:31:30.469Z,1.60
2023-03-11T18:34:05.011Z,1.95
2023-03-11T18:36:35.922Z,1.85
2023-03-11T18:39:04.872Z,1.60
2023-03-11T18:41:35.057Z,1.48
2023-03-11T18:44:02.755Z,1.83
2023-03-11T18:46:32.356Z,1.70
2023-03-11T18:49:02.126Z,2.28
2023-03-11T18:51:31.517Z,2.53
2023-03-11T18:54:00.563Z,2.03
2023-03-11T18:56:31.060Z,2.15
2023-03-11T18:58:59.519Z,2.10
2023-03-11T19:01:27.644Z,3.28
2023-03-11T19:03:57.556Z,2.45
2023-03-11T19:06:27.221Z,1.95
2023-03-11T19:08:55.117Z,2.70
2023-03-11T19:11:24.341Z,3.10
2023-03-11T19:13:52.486Z,3.38
2023-03-11T19:16:23.650Z,2.40
2023-03-11T19:18:51.614Z,3.17
2023-03-11T19:21:18.974Z,3.55
2023-03-11T19:23:46.870Z,3.70
2023-03-11T19:26:14.675Z,4.00
2023-03-11T19:28:42.274Z,4.28
2023-03-11T19:31:09.998Z,4.45
2023-03-11T19:33:37.668Z,4.05
2023-03-11T19:36:06.869Z,4.45
2023-03-11T19:38:35.527Z,5.18
2023-03-11T19:41:08.795Z,5.03
2023-03-11T19:43:36.715Z,4.75
2023-03-11T19:46:06.637Z,5.97
2023-03-11T19:48:34.495Z,5.03
2023-03-11T19:51:05.823Z,6.45
2023-03-11T19:53:34.821Z,4.70
2023-03-11T19:56:04.758Z,4.93
2023-03-11T19:58:33.011Z,5.57
2023-03-11T20:01:02.247Z,5.75
2023-03-11T20:03:30.994Z,6.55
2023-03-11T20:06:06.839Z,6.32
2023-03-11T20:08:37.334Z,6.75
2023-03-11T20:11:06.755Z,5.95
2023-03-11T20:13:36.874Z,5.97
2023-03-11T20:16:10.177Z,5.70
2023-03-11T20:18:38.122Z,6.57
2023-03-11T20:21:11.571Z,6.40
2023-03-11T20:23:40.557Z,6.80
2023-03-11T20:26:14.053Z,6.32
2023-03-11T20:28:56.339Z,6.45
2023-03-11T20:31:25.364Z,7.00
2023-03-11T20:33:54.371Z,7.80
2023-03-11T20:36:25.180Z,7.47
2023-03-11T20:38:55.950Z,8.82
2023-03-11T20:41:25.765Z,7.40
2023-03-11T20:43:55.702Z,8.15
2023-03-11T20:46:25.987Z,7.75
2023-03-11T20:48:54.070Z,7.68
2023-03-11T20:51:23.201Z,7.40
2023-03-11T20:53:51.590Z,8.63
2023-03-11T20:56:22.340Z,8.20
2023-03-11T20:58:51.458Z,9.65
2023-03-11T21:01:25.390Z,10.02
2023-03-11T21:03:54.851Z,10.63
2023-03-11T21:06:29.627Z,9.90
2023-03-11T21:08:58.974Z,9.55
2023-03-11T21:11:27.154Z,10.65
2023-03-11T21:13:55.759Z,9.07
2023-03-11T21:16:24.461Z,9.25
2023-03-11T21:18:52.048Z,9.73
2023-03-11T21:21:20.289Z,10.77
2023-03-11T21:23:48.557Z,10.55
2023-03-11T21:26:17.585Z,9.90
2023-03-11T21:28:47.149Z,9.77
2023-03-11T21:31:18.194Z,10.57
2023-03-11T21:33:47.630Z,11.77
2023-03-11T21:36:17.527Z,10.48
2023-03-11T21:38:50.136Z,11.07
2023-03-11T21:41:25.318Z,12.07
2023-03-11T21:43:55.472Z,11.13
2023-03-11T21:46:26.788Z,11.13
2023-03-11T21:48:54.988Z,11.43
2023-03-11T21:51:23.306Z,11.45
2023-03-11T21:53:50.821Z,12.50
2023-03-11T21:56:18.987Z,11.80
2023-03-11T21:58:46.696Z,11.68
2023-03-11T22:01:15.933Z,10.70
2023-03-11T22:03:43.968Z,12.02
2023-03-11T22:06:12.723Z,11.30
2023-03-11T22:08:41.413Z,11.30
2023-03-11T22:11:17.663Z,12.35
2023-03-11T22:13:47.270Z,12.02
2023-03-11T22:16:15.609Z,26.88
2023-03-11T22:18:43.674Z,11.57
2023-03-11T22:21:11.579Z,13.18
2023-03-11T22:23:39.006Z,12.40
2023-03-11T22:26:06.408Z,12.25
2023-03-11T22:28:34.318Z,12.25
2023-03-11T22:31:07.211Z,12.55
2023-03-11T22:33:35.408Z,12.30
2023-03-11T22:36:05.015Z,13.27
2023-03-11T22:38:35.742Z,12.10
2023-03-11T22:41:07.899Z,12.25
2023-03-11T22:43:36.816Z,12.68
2023-03-11T22:46:05.758Z,13.38
2023-03-11T22:48:34.383Z,12.43
2023-03-11T22:51:02.262Z,13.15
2023-03-11T22:53:30.646Z,13.15
2023-03-11T22:55:58.306Z,13.15
2023-03-11T22:58:26.071Z,12.70
2023-03-11T23:00:53.657Z,13.57
2023-03-11T23:03:21.456Z,12.82
2023-03-11T23:05:49.055Z,13.30
2023-03-11T23:08:18.509Z,12.65
2023-03-11T23:10:47.436Z,13.43
2023-03-11T23:13:15.560Z,15.20
2023-03-11T23:15:44.913Z,13.52
2023-03-11T23:18:13.664Z,15.32
2023-03-11T23:20:42.460Z,15.07
2023-03-11T23:23:11.057Z,15.50
2023-03-11T23:25:39.951Z,14.75
2023-03-11T23:28:07.977Z,16.10
2023-03-11T23:30:35.750Z,15.07
2023-03-11T23:33:03.515Z,15.82
2023-03-11T23:35:31.716Z,13.35
2023-03-11T23:37:59.847Z,14.73
2023-03-11T23:40:27.878Z,14.63
2023-03-11T23:42:55.352Z,15.10
2023-03-11T23:45:23.076Z,14.40
2023-03-11T23:47:50.710Z,13.63
2023-03-11T23:50:18.554Z,14.40
2023-03-11T23:52:46.355Z,13.40
2023-03-11T23:55:13.997Z,13.52
2023-03-11T23:57:41.275Z,12.70
